createdAt,value
2022-08-20T00:00:26.939Z,35.42
2022-08-20T00:03:26.695Z,34.25
2022-08-20T00:06:22.366Z,36.13
2022-08-20T00:09:09.645Z,32.63
2022-08-20T00:11:55.920Z,31.35
2022-08-20T00:14:42.068Z,36.10
2022-08-20T00:17:43.117Z,32.50
2022-08-20T00:23:38.252Z,36.90
2022-08-20T00:26:28.366Z,32.83
2022-08-20T00:29:18.046Z,35.13
2022-08-20T00:32:07.250Z,36.75
2022-08-20T00:37:47.390Z,32.60
2022-08-20T00:40:55.269Z,35.28
2022-08-20T00:43:49.033Z,35.53
2022-08-20T00:46:37.973Z,35.20
2022-08-20T00:49:28.869Z,32.17
2022-08-20T00:52:22.226Z,32.15
2022-08-20T00:55:12.828Z,32.10
2022-08-20T00:58:04.276Z,33.97
2022-08-20T01:00:58.298Z,33.97
2022-08-20T01:03:53.928Z,32.42
2022-08-20T01:06:41.960Z,35.88
2022-08-20T01:09:57.767Z,31.55
2022-08-20T01:12:49.520Z,38.22
2022-08-20T01:15:53.625Z,34.30
2022-08-20T01:18:44.894Z,34.65
2022-08-20T01:21:34.249Z,32.55
2022-08-20T01:24:40.965Z,35.03
2022-08-20T01:27:32.380Z,29.42
2022-08-20T01:30:26.755Z,35.63
2022-08-20T01:33:14.854Z,33.22
2022-08-20T01:36:06.632Z,35.88
2022-08-20T01:38:58.087Z,31.92
2022-08-20T01:44:59.173Z,38.00
2022-08-20T01:47:48.025Z,34.10
2022-08-20T01:50:41.080Z,33.08
2022-08-20T01:53:50.995Z,35.80
2022-08-20T01:56:57.047Z,38.28
2022-08-20T02:00:14.593Z,38.35
2022-08-20T02:03:17.389Z,38.00
2022-08-20T02:06:06.097Z,34.33
2022-08-20T02:09:07.728Z,37.33
2022-08-20T02:12:00.483Z,33.88
2022-08-20T02:14:53.669Z,39.33
2022-08-20T02:17:44.225Z,35.30
2022-08-20T02:20:33.463Z,33.85
2022-08-20T02:23:31.721Z,30.48
2022-08-20T02:26:22.359Z,33.85
2022-08-20T02:29:16.194Z,36.55
2022-08-20T02:32:25.009Z,34.22
2022-08-20T02:35:15.992Z,34.67
2022-08-20T02:38:05.077Z,36.33
2022-08-20T02:41:00.981Z,35.53
2022-08-20T02:43:55.484Z,35.35
2022-08-20T02:46:42.042Z,31.13
2022-08-20T02:49:29.126Z,34.50
2022-08-20T02:52:18.011Z,34.40
2022-08-20T02:55:06.233Z,34.30
2022-08-20T02:57:59.430Z,33.30
2022-08-20T03:00:52.828Z,35.70
2022-08-20T03:03:40.592Z,31.83
2022-08-20T03:06:27.397Z,32.30
2022-08-20T03:09:13.897Z,31.17
2022-08-20T03:12:02.825Z,33.22
2022-08-20T03:14:50.271Z,32.33
2022-08-20T03:17:45.855Z,34.33
2022-08-20T03:20:34.644Z,34.80
2022-08-20T03:23:29.791Z,35.10
2022-08-20T03:26:16.864Z,33.35
2022-08-20T03:29:06.901Z,34.47
2022-08-20T03:31:54.609Z,36.92
2022-08-20T03:34:46.065Z,35.97
2022-08-20T03:37:36.747Z,32.50
2022-08-20T03:40:33.964Z,36.47
2022-08-20T03:43:20.213Z,34.00
2022-08-20T03:49:26.135Z,37.42
2022-08-20T03:55:10.659Z,34.05
2022-08-20T03:58:02.601Z,36.67
2022-08-20T04:00:52.911Z,36.63
2022-08-20T04:03:45.583Z,37.85
2022-08-20T04:06:34.797Z,33.97
2022-08-20T04:09:24.294Z,34.30
2022-08-20T04:12:13.961Z,36.05
2022-08-20T04:15:05.750Z,36.70
2022-08-20T04:17:57.757Z,36.22
2022-08-20T04:20:48.965Z,35.92
2022-08-20T04:23:36.316Z,37.63
2022-08-20T04:26:22.599Z,38.78
2022-08-20T04:29:11.900Z,32.25
2022-08-20T04:32:06.126Z,35.75
2022-08-20T04:35:01.672Z,38.50
2022-08-20T04:37:50.713Z,42.10
2022-08-20T04:40:56.422Z,38.80
2022-08-20T04:43:45.718Z,45.95
2022-08-20T04:46:41.803Z,38.28
2022-08-20T04:49:34.360Z,37.30
2022-08-20T04:52:43.847Z,40.72
2022-08-20T04:55:32.324Z,36.50
2022-08-20T04:58:23.004Z,35.92
2022-08-20T05:01:11.919Z,37.88
2022-08-20T05:03:59.942Z,35.55
2022-08-20T05:06:51.981Z,38.88
2022-08-20T05:09:44.170Z,38.35
2022-08-20T05:12:29.892Z,40.25
2022-08-20T05:15:25.337Z,39.28
2022-08-20T05:18:31.729Z,43.60
2022-08-20T05:21:19.329Z,36.55
2022-08-20T05:24:07.426Z,36.00
2022-08-20T05:27:03.301Z,35.53
2022-08-20T05:29:56.851Z,36.30
2022-08-20T05:32:49.556Z,38.63
2022-08-20T05:36:00.988Z,40.83
2022-08-20T05:38:55.610Z,37.03
2022-08-20T05:41:47.329Z,38.03
2022-08-20T05:44:39.621Z,39.97
2022-08-20T05:47:28.551Z,39.33
2022-08-20T05:50:25.153Z,41.03
2022-08-20T05:53:16.473Z,36.55
2022-08-20T05:56:03.465Z,41.95
2022-08-20T05:58:53.831Z,40.83
2022-08-20T06:02:30.874Z,45.75
2022-08-20T06:05:32.606Z,42.55
2022-08-20T06:11:38.323Z,36.78
2022-08-20T06:14:26.623Z,37.53
2022-08-20T06:17:23.251Z,41.47
2022-08-20T06:20:15.900Z,39.58
2022-08-20T06:23:07.477Z,41.58
2022-08-20T06:25:59.945Z,40.88
2022-08-20T06:28:46.648Z,41.75
2022-08-20T06:31:38.898Z,40.67
2022-08-20T06:34:32.438Z,42.83
2022-08-20T06:37:30.871Z,43.08
2022-08-20T06:40:23.371Z,42.30
2022-08-20T06:43:15.400Z,40.53
2022-08-20T06:46:08.725Z,39.92
2022-08-20T06:48:57.767Z,41.63
2022-08-20T06:51:52.069Z,39.05
2022-08-20T06:54:40.325Z,40.80
2022-08-20T06:57:28.474Z,38.42
2022-08-20T07:00:20.238Z,40.15
2022-08-20T07:03:07.673Z,41.40
2022-08-20T07:06:07.239Z,44.40
2022-08-20T07:09:06.083Z,42.42
2022-08-20T07:11:57.870Z,34.90
2022-08-20T07:14:44.880Z,38.30
2022-08-20T07:17:39.821Z,40.80
2022-08-20T07:20:29.344Z,43.20
2022-08-20T07:23:20.385Z,41.58
2022-08-20T07:26:14.079Z,40.42
2022-08-20T07:29:17.095Z,39.33
2022-08-20T07:33:01.284Z,36.50
2022-08-20T07:36:04.031Z,36.30
2022-08-20T07:42:41.141Z,36.85
2022-08-20T07:48:32.263Z,32.60
2022-08-20T07:51:36.135Z,34.08
2022-08-20T07:54:24.819Z,29.58
2022-08-20T07:57:14.031Z,30.35
2022-08-20T08:00:11.966Z,32.30
2022-08-20T08:03:07.016Z,31.60
2022-08-20T08:05:54.727Z,30.75
2022-08-20T08:08:43.166Z,28.85
2022-08-20T08:11:32.260Z,26.08
2022-08-20T08:14:27.121Z,27.52
2022-08-20T08:17:15.068Z,31.60
2022-08-20T08:20:05.505Z,30.88
2022-08-20T08:22:55.553Z,31.90
2022-08-20T08:25:55.459Z,32.50
2022-08-20T08:28:45.170Z,31.15
2022-08-20T08:31:43.190Z,34.25
2022-08-20T08:34:38.250Z,29.73
2022-08-20T08:37:46.157Z,38.92
2022-08-20T08:40:37.253Z,29.50
2022-08-20T08:43:47.465Z,35.63
2022-08-20T08:46:57.411Z,34.60
2022-08-20T08:49:52.876Z,32.33
2022-08-20T08:52:42.306Z,28.75
2022-08-20T08:55:31.054Z,30.55
2022-08-20T08:58:22.319Z,34.88
2022-08-20T09:01:55.198Z,37.30
2022-08-20T09:04:37.832Z,35.13
2022-08-20T09:07:31.858Z,31.05
2022-08-20T09:10:23.314Z,32.67
2022-08-20T09:13:10.028Z,37.95
2022-08-20T09:15:58.864Z,33.67
2022-08-20T09:18:45.134Z,31.88
2022-08-20T09:21:32.140Z,29.55
2022-08-20T09:24:26.222Z,35.97
2022-08-20T09:27:15.210Z,30.88
2022-08-20T09:30:02.984Z,32.65
2022-08-20T09:32:51.143Z,31.88
2022-08-20T09:35:41.416Z,32.90
2022-08-20T09:38:31.955Z,34.72
2022-08-20T09:41:18.978Z,32.97
2022-08-20T09:44:05.982Z,28.77
2022-08-20T09:46:53.031Z,30.13
2022-08-20T09:49:40.844Z,28.92
2022-08-20T09:52:36.782Z,29.08
2022-08-20T09:55:41.027Z,36.78
2022-08-20T09:58:43.153Z,29.58
2022-08-20T10:01:30.818Z,38.25
2022-08-20T10:04:17.949Z,33.15
2022-08-20T10:07:13.075Z,31.17
2022-08-20T10:10:09.308Z,28.85
2022-08-20T10:12:57.393Z,30.98
2022-08-20T10:15:44.948Z,34.75
2022-08-20T10:18:35.096Z,29.67
2022-08-20T10:21:22.014Z,27.23
2022-08-20T10:24:12.897Z,28.02
2022-08-20T10:27:01.005Z,28.27
2022-08-20T10:29:50.778Z,25.25
2022-08-20T10:32:37.786Z,24.55
2022-08-20T10:35:28.227Z,26.63
2022-08-20T10:41:06.358Z,23.60
2022-08-20T10:43:52.534Z,23.25
2022-08-20T10:46:39.832Z,25.80
2022-08-20T10:49:26.959Z,28.75
2022-08-20T10:55:11.978Z,27.90
2022-08-20T10:57:59.017Z,26.55
2022-08-20T11:00:47.641Z,20.52
2022-08-20T11:03:35.692Z,22.00
2022-08-20T11:06:23.290Z,23.02
2022-08-20T11:09:11.077Z,19.95
2022-08-20T11:11:57.907Z,18.42
2022-08-20T11:14:46.895Z,19.88
2022-08-20T11:17:40.902Z,20.55
2022-08-20T11:20:28.667Z,18.10
2022-08-20T11:23:15.717Z,21.02
2022-08-20T11:26:03.807Z,18.95
2022-08-20T11:28:50.694Z,17.42
2022-08-20T11:31:38.625Z,21.65
2022-08-20T11:34:28.308Z,21.80
2022-08-20T11:37:21.588Z,19.52
2022-08-20T11:40:11.939Z,15.75
2022-08-20T11:43:16.704Z,16.42
2022-08-20T11:46:05.545Z,18.60
2022-08-20T11:48:52.861Z,17.27
2022-08-20T11:51:49.430Z,18.80
2022-08-20T11:54:40.727Z,19.15
2022-08-20T11:57:29.969Z,15.88
2022-08-20T12:00:21.692Z,21.20
2022-08-20T12:03:19.822Z,14.10
2022-08-20T12:06:06.761Z,16.50
2022-08-20T12:08:53.428Z,18.02
2022-08-20T12:11:43.651Z,16.50
2022-08-20T12:14:36.636Z,13.73
2022-08-20T12:17:26.800Z,21.85
2022-08-20T12:20:14.413Z,18.58
2022-08-20T12:23:00.876Z,18.38
2022-08-20T12:25:48.667Z,15.35
2022-08-20T12:29:02.011Z,24.17
2022-08-20T12:31:53.172Z,15.13
2022-08-20T12:34:42.723Z,20.85
2022-08-20T12:37:31.206Z,15.80
2022-08-20T12:40:30.658Z,21.35
2022-08-20T12:43:24.992Z,16.52
2022-08-20T12:46:12.562Z,14.38
2022-08-20T12:48:59.585Z,13.65
2022-08-20T12:51:47.011Z,15.75
2022-08-20T12:54:34.859Z,13.25
2022-08-20T12:57:33.579Z,14.57
2022-08-20T13:00:27.559Z,14.73
2022-08-20T13:03:14.756Z,14.07
2022-08-20T13:06:01.992Z,14.45
2022-08-20T13:08:53.538Z,13.68
2022-08-20T13:11:41.543Z,14.68
2022-08-20T13:14:29.628Z,17.13
2022-08-20T13:17:19.461Z,16.35
2022-08-20T13:20:15.572Z,15.60
2022-08-20T13:23:04.774Z,13.52
2022-08-20T13:25:53.367Z,12.20
2022-08-20T13:28:46.440Z,11.82
2022-08-20T13:31:34.562Z,13.45
2022-08-20T13:34:23.370Z,13.30
2022-08-20T13:37:25.505Z,11.25
2022-08-20T13:40:14.575Z,15.10
2022-08-20T13:43:07.380Z,14.88
2022-08-20T13:45:56.551Z,11.50
2022-08-20T13:48:50.373Z,14.60
2022-08-20T13:51:38.375Z,13.90
2022-08-20T13:54:30.220Z,12.60
2022-08-20T13:57:38.637Z,10.32
2022-08-20T14:00:31.934Z,18.08
2022-08-20T14:03:20.045Z,13.23
2022-08-20T14:06:13.882Z,14.23
2022-08-20T14:09:01.529Z,14.20
2022-08-20T14:11:50.360Z,13.35
2022-08-20T14:14:39.170Z,11.63
2022-08-20T14:17:34.660Z,15.35
2022-08-20T14:20:25.535Z,12.13
2022-08-20T14:23:17.681Z,10.93
2022-08-20T14:26:12.337Z,12.80
2022-08-20T14:29:00.565Z,14.85
2022-08-20T14:31:49.585Z,13.10
2022-08-20T14:37:39.601Z,9.50
2022-08-20T14:40:29.536Z,14.52
2022-08-20T14:43:17.702Z,16.40
2022-08-20T14:46:34.306Z,13.35
2022-08-20T14:49:23.534Z,18.73
2022-08-20T14:52:12.281Z,15.65
2022-08-20T14:55:16.490Z,15.15
2022-08-20T14:58:10.826Z,17.27
2022-08-20T15:00:58.716Z,11.35
2022-08-20T15:03:46.540Z,14.10
2022-08-20T15:06:36.927Z,10.10
2022-08-20T15:09:27.129Z,12.93
2022-08-20T15:12:18.159Z,15.90
2022-08-20T15:15:13.465Z,19.38
2022-08-20T15:18:07.657Z,17.00
2022-08-20T15:20:57.425Z,19.13
2022-08-20T15:23:45.372Z,15.13
2022-08-20T15:26:34.201Z,13.10
2022-08-20T15:32:12.232Z,16.10
2022-08-20T15:35:06.635Z,18.55
2022-08-20T15:38:00.402Z,14.18
2022-08-20T15:41:03.962Z,11.25
2022-08-20T15:43:54.387Z,15.30
2022-08-20T15:46:45.154Z,17.58
2022-08-20T15:49:34.015Z,13.82
2022-08-20T15:52:29.871Z,19.58
2022-08-20T15:55:22.222Z,21.25
2022-08-20T15:58:33.475Z,23.23
2022-08-20T16:01:58.818Z,25.30
2022-08-20T16:05:02.862Z,28.63
2022-08-20T16:07:56.550Z,23.95
2022-08-20T16:11:05.328Z,23.48
2022-08-20T16:14:25.228Z,20.98
2022-08-20T16:17:23.449Z,30.02
2022-08-20T16:20:35.139Z,25.55
2022-08-20T16:23:35.581Z,27.00
2022-08-20T16:26:34.257Z,30.10
2022-08-20T16:29:56.952Z,31.75
2022-08-20T16:32:46.280Z,34.03
2022-08-20T16:36:02.930Z,30.63
2022-08-20T16:39:01.124Z,25.25
2022-08-20T16:41:57.421Z,23.13
2022-08-20T16:45:00.921Z,24.23
2022-08-20T16:48:11.532Z,22.95
2022-08-20T16:51:02.674Z,21.67
2022-08-20T16:54:14.214Z,22.48
2022-08-20T16:57:07.406Z,24.25
2022-08-20T17:00:17.224Z,22.80
2022-08-20T17:03:40.510Z,22.02
2022-08-20T17:06:39.761Z,24.77
2022-08-20T17:09:39.194Z,24.63
2022-08-20T17:12:28.936Z,21.92
2022-08-20T17:15:31.006Z,26.42
2022-08-20T17:18:33.421Z,24.00
2022-08-20T17:21:38.084Z,19.95
2022-08-20T17:24:28.256Z,23.95
2022-08-20T17:27:33.155Z,18.85
2022-08-20T17:30:36.155Z,16.48
2022-08-20T17:33:39.861Z,15.60
2022-08-20T17:36:26.768Z,13.90
2022-08-20T17:39:20.153Z,12.75
2022-08-20T17:42:15.073Z,12.38
2022-08-20T17:45:25.998Z,6.03
2022-08-20T17:48:23.971Z,7.80
2022-08-20T17:51:20.901Z,9.32
2022-08-20T17:54:27.096Z,7.40
2022-08-20T17:57:26.080Z,6.90
2022-08-20T18:00:23.909Z,8.40
2022-08-20T18:03:22.106Z,8.50
2022-08-20T18:06:19.188Z,9.13
2022-08-20T18:09:23.990Z,7.68
2022-08-20T18:12:30.840Z,9.98
2022-08-20T18:15:37.825Z,8.57
2022-08-20T18:18:56.746Z,9.55
2022-08-20T18:25:14.041Z,8.38
2022-08-20T18:28:07.904Z,9.98
2022-08-20T18:30:58.832Z,9.13
2022-08-20T18:33:46.823Z,7.38
2022-08-20T18:36:34.000Z,7.88
2022-08-20T18:39:31.412Z,8.25
2022-08-20T18:42:30.410Z,8.75
2022-08-20T18:45:29.214Z,8.05
2022-08-20T18:48:23.281Z,9.20
2022-08-20T18:51:12.120Z,8.88
2022-08-20T18:54:01.364Z,7.28
2022-08-20T18:56:48.248Z,9.45
2022-08-20T18:59:46.354Z,9.50
2022-08-20T19:02:35.278Z,6.38
2022-08-20T19:05:29.521Z,8.80
2022-08-20T19:08:20.289Z,8.48
2022-08-20T19:11:28.142Z,7.90
2022-08-20T19:14:28.438Z,8.02
2022-08-20T19:17:44.225Z,10.15
2022-08-20T19:20:34.329Z,8.68
2022-08-20T19:23:23.343Z,11.20
2022-08-20T19:26:24.755Z,8.30
2022-08-20T19:29:20.182Z,8.85
2022-08-20T19:32:10.341Z,10.13
2022-08-20T19:35:03.502Z,7.15
2022-08-20T19:38:01.499Z,8.18
2022-08-20T19:41:30.949Z,10.23
2022-08-20T19:44:34.329Z,10.35
2022-08-20T19:48:04.612Z,11.77
2022-08-20T19:51:11.701Z,10.52
2022-08-20T19:54:08.165Z,10.63
2022-08-20T19:57:07.173Z,12.98
2022-08-20T20:00:12.144Z,12.63
2022-08-20T20:03:11.713Z,12.48
2022-08-20T20:06:00.999Z,11.88
2022-08-20T20:09:13.232Z,9.20
2022-08-20T20:12:11.396Z,15.88
2022-08-20T20:15:09.446Z,12.45
2022-08-20T20:17:56.079Z,15.73
2022-08-20T20:20:57.801Z,13.80
2022-08-20T20:24:01.403Z,16.00
2022-08-20T20:26:49.435Z,12.15
2022-08-20T20:29:37.725Z,12.40
2022-08-20T20:32:25.200Z,13.50
2022-08-20T20:35:24.166Z,14.80
2022-08-20T20:38:33.597Z,12.85
2022-08-20T20:41:25.322Z,13.48
2022-08-20T20:44:26.115Z,14.20
2022-08-20T20:47:25.343Z,14.95
2022-08-20T20:50:12.104Z,14.07
2022-08-20T20:53:00.727Z,12.07
2022-08-20T20:55:56.199Z,13.52
2022-08-20T20:58:43.658Z,13.77
2022-08-20T21:01:49.815Z,14.38
2022-08-20T21:04:40.718Z,16.85
2022-08-20T21:07:29.850Z,15.52
2022-08-20T21:10:16.921Z,12.20
2022-08-20T21:13:05.002Z,16.92
2022-08-20T21:15:51.854Z,17.50
2022-08-20T21:18:38.635Z,14.95
2022-08-20T21:21:25.853Z,14.68
2022-08-20T21:24:13.210Z,14.75
2022-08-20T21:27:03.980Z,16.50
2022-08-20T21:29:51.957Z,15.98
2022-08-20T21:32:39.162Z,14.27
2022-08-20T21:35:27.980Z,14.68
2022-08-20T21:38:15.554Z,16.88
2022-08-20T21:41:02.856Z,18.08
2022-08-20T21:43:49.116Z,15.35
2022-08-20T21:46:36.191Z,13.90
2022-08-20T21:49:23.239Z,14.75
2022-08-20T21:52:11.119Z,15.13
2022-08-20T21:54:57.768Z,14.23
2022-08-20T21:57:44.961Z,15.52
2022-08-20T22:00:59.096Z,18.73
2022-08-20T22:03:48.871Z,16.05
2022-08-20T22:06:44.923Z,17.17
2022-08-20T22:09:33.150Z,18.35
2022-08-20T22:12:24.166Z,17.95
2022-08-20T22:15:11.078Z,17.63
2022-08-20T22:17:57.851Z,17.35
2022-08-20T22:20:45.206Z,16.75
2022-08-20T22:23:31.831Z,18.48
2022-08-20T22:26:19.769Z,19.63
2022-08-20T22:29:06.801Z,19.30
2022-08-20T22:31:52.936Z,21.55
2022-08-20T22:34:39.650Z,20.42
2022-08-20T22:37:31.698Z,18.83
2022-08-20T22:40:20.885Z,22.52
2022-08-20T22:43:08.832Z,19.60
2022-08-20T22:45:58.736Z,18.20
2022-08-20T22:48:44.793Z,19.75
2022-08-20T22:51:36.724Z,17.48
2022-08-20T22:54:50.773Z,21.15
2022-08-20T22:57:38.025Z,14.73
2022-08-20T23:00:25.658Z,15.60
2022-08-20T23:03:11.965Z,16.60
2022-08-20T23:05:59.637Z,18.05
2022-08-20T23:08:47.009Z,16.67
2022-08-20T23:11:33.839Z,16.77
2022-08-20T23:14:21.567Z,13.88
2022-08-20T23:17:13.656Z,13.98
2022-08-20T23:20:01.324Z,15.18
2022-08-20T23:22:47.727Z,12.55
2022-08-20T23:25:35.638Z,13.90
2022-08-20T23:28:29.294Z,13.23
2022-08-20T23:31:15.985Z,11.98
2022-08-20T23:34:02.720Z,13.00
2022-08-20T23:36:50.803Z,13.93
2022-08-20T23:39:37.661Z,11.35
2022-08-20T23:42:24.705Z,12.35
2022-08-20T23:45:14.464Z,10.40
2022-08-20T23:48:03.718Z,10.85
2022-08-20T23:50:52.905Z,9.82
2022-08-20T23:53:40.738Z,11.48
2022-08-20T23:56:27.011Z,9.95
2022-08-20T23:59:13.652Z,9.18
